Time;durP1;ratioP1;P1;durP2;ratioP2;P2;SDS_P1;SDS_P2;PMS_P1;PMS_P2;Temp;Humidity;BMP_temperature;BMP_pressure;BME280_temperature;BME280_humidity;BME280_pressure;Samples;Min_cycle;Max_cycle;Signal;HPM_P1;HPM_P2
2022/05/08 00:00:42;;;;;;;6.13;4.40;;;15.60;99.90;;;;;;2073602;28;20022;-69
2022/05/08 00:01:42;;;;;;;7.22;4.47;;;15.60;99.90;;;;;;2072980;28;20516;-69
2022/05/08 00:02:44;;;;;;;8.90;4.57;;;15.60;99.90;;;;;;2070246;28;20021;-69
2022/05/08 00:03:44;;;;;;;8.15;4.35;;;15.60;99.90;;;;;;2072639;28;20126;-69
2022/05/08 00:04:45;;;;;;;5.53;4.20;;;15.60;99.90;;;;;;2074954;28;20037;-69
2022/05/08 00:05:46;;;;;;;6.57;4.32;;;15.60;99.90;;;;;;2069188;28;20113;-69
2022/05/08 00:06:46;;;;;;;6.97;4.20;;;15.60;99.90;;;;;;2073061;28;20101;-69
2022/05/08 00:07:47;;;;;;;5.28;3.90;;;15.50;99.90;;;;;;2072505;28;20030;-69
2022/05/08 00:08:47;;;;;;;7.00;4.20;;;15.50;99.90;;;;;;2072441;28;20026;-69
2022/05/08 00:09:49;;;;;;;7.30;4.68;;;15.50;99.90;;;;;;2074135;28;20029;-69
2022/05/08 00:10:49;;;;;;;8.52;4.88;;;15.50;99.90;;;;;;2072572;28;20026;-69
2022/05/08 00:11:51;;;;;;;6.78;4.07;;;15.50;99.90;;;;;;2071502;28;20084;-69
2022/05/08 00:12:52;;;;;;;7.18;4.35;;;15.50;99.90;;;;;;2067165;28;20025;-69
2022/05/08 00:13:53;;;;;;;6.70;4.78;;;15.50;99.90;;;;;;2069876;28;20018;-69
2022/05/08 00:14:54;;;;;;;9.50;5.28;;;15.50;99.90;;;;;;2072192;28;20022;-69
2022/05/08 00:15:54;;;;;;;7.50;4.50;;;15.50;99.90;;;;;;2069560;28;20105;-69
2022/05/08 00:16:55;;;;;;;12.07;5.00;;;15.50;99.90;;;;;;2072597;28;20097;-69
2022/05/08 00:17:55;;;;;;;5.93;4.82;;;15.50;99.90;;;;;;2078051;28;20025;-69
2022/05/08 00:18:56;;;;;;;8.15;4.55;;;15.50;99.90;;;;;;2071605;28;20023;-69
2022/05/08 00:19:56;;;;;;;7.80;4.35;;;15.40;99.90;;;;;;2071977;28;20502;-69
2022/05/08 00:20:57;;;;;;;8.05;5.03;;;15.50;99.90;;;;;;2071546;28;20022;-69
2022/05/08 00:21:57;;;;;;;5.18;4.57;;;15.50;99.90;;;;;;2073349;28;20045;-69
2022/05/08 00:22:58;;;;;;;7.10;5.00;;;15.50;99.90;;;;;;2072671;28;20018;-69
2022/05/08 00:23:59;;;;;;;7.82;5.00;;;15.50;99.90;;;;;;2071052;28;20022;-69
2022/05/08 00:25:00;;;;;;;9.27;5.25;;;15.50;99.90;;;;;;2066290;28;20735;-69
2022/05/08 00:26:01;;;;;;;6.60;4.80;;;15.50;99.90;;;;;;2068046;28;20481;-69
2022/05/08 00:27:01;;;;;;;6.15;4.70;;;15.40;99.90;;;;;;2073865;28;20417;-69
2022/05/08 00:28:02;;;;;;;7.32;4.88;;;15.50;99.90;;;;;;2069504;28;20030;-69
2022/05/08 00:29:03;;;;;;;7.90;4.80;;;15.50;99.90;;;;;;2062177;28;20030;-69
2022/05/08 00:30:07;;;;;;;7.10;4.68;;;15.50;99.90;;;;;;2063249;28;20581;-69
2022/05/08 00:31:09;;;;;;;9.18;4.93;;;15.50;99.90;;;;;;2068601;28;20029;-69
2022/05/08 00:32:09;;;;;;;8.18;4.90;;;15.40;99.90;;;;;;2069795;28;20025;-69
2022/05/08 00:33:10;;;;;;;7.90;4.75;;;15.40;99.90;;;;;;2069626;28;20032;-69
2022/05/08 00:34:10;;;;;;;9.32;5.28;;;15.40;99.90;;;;;;2069279;28;20022;-69
2022/05/08 00:35:11;;;;;;;8.43;5.70;;;15.40;99.90;;;;;;2068719;28;20025;-69
2022/05/08 00:36:12;;;;;;;12.57;5.95;;;15.40;99.90;;;;;;2071386;28;20022;-69
2022/05/08 00:37:14;;;;;;;8.48;5.57;;;15.40;99.90;;;;;;2071251;28;20022;-69
2022/05/08 00:38:15;;;;;;;9.88;5.25;;;15.40;99.90;;;;;;2069894;28;20064;-69
2022/05/08 00:39:18;;;;;;;8.05;6.13;;;15.40;99.90;;;;;;2068721;28;20033;-69
2022/05/08 00:40:19;;;;;;;10.60;6.00;;;15.40;99.90;;;;;;2071945;28;20026;-69
2022/05/08 00:41:19;;;;;;;8.20;5.65;;;15.30;99.90;;;;;;2070023;28;20036;-69
2022/05/08 00:42:20;;;;;;;11.48;6.97;;;15.30;99.90;;;;;;2073142;28;20054;-69
2022/05/08 00:43:32;;;;;;;11.18;6.00;;;15.30;99.90;;;;;;2066737;28;20516;-69
2022/05/08 00:44:33;;;;;;;10.35;6.18;;;15.30;99.90;;;;;;2070677;28;20073;-69
2022/05/08 00:45:33;;;;;;;9.32;6.40;;;15.30;99.90;;;;;;2069015;28;20096;-69
2022/05/08 00:46:34;;;;;;;8.07;6.00;;;15.20;99.90;;;;;;2072662;28;20049;-69
2022/05/08 00:47:35;;;;;;;7.78;6.22;;;15.20;99.90;;;;;;2074112;28;20021;-69
2022/05/08 00:48:37;;;;;;;12.10;6.80;;;15.20;99.90;;;;;;2071553;28;20021;-69
2022/05/08 00:49:37;;;;;;;7.20;6.38;;;15.10;99.90;;;;;;2071594;28;20014;-69
2022/05/08 00:50:38;;;;;;;7.95;6.40;;;15.10;99.90;;;;;;2073505;28;20036;-69
2022/05/08 00:51:39;;;;;;;10.50;6.97;;;15.10;99.90;;;;;;2073825;28;20398;-69
2022/05/08 00:52:39;;;;;;;8.25;6.45;;;15.00;99.90;;;;;;2072325;28;20088;-69
2022/05/08 00:53:48;;;;;;;10.40;6.78;;;15.00;99.90;;;;;;2072433;28;20026;-69
2022/05/08 00:54:48;;;;;;;10.45;6.97;;;15.00;99.90;;;;;;2072324;28;20030;-69
2022/05/08 00:55:49;;;;;;;11.65;6.78;;;14.90;99.90;;;;;;2071045;28;20026;-69
2022/05/08 00:56:50;;;;;;;7.50;6.20;;;14.90;99.90;;;;;;2072602;28;21061;-69
2022/05/08 00:57:50;;;;;;;11.30;6.95;;;14.90;99.90;;;;;;2072585;28;20509;-69
2022/05/08 00:58:52;;;;;;;11.35;7.65;;;14.90;99.90;;;;;;2068108;28;20488;-69
2022/05/08 00:59:52;;;;;;;11.98;6.75;;;14.90;99.90;;;;;;2070693;28;20105;-69
2022/05/08 01:00:53;;;;;;;9.73;6.18;;;14.90;99.90;;;;;;2069431;28;20022;-69
2022/05/08 01:01:54;;;;;;;9.85;6.30;;;14.90;99.90;;;;;;2070757;28;20029;-70
2022/05/08 01:02:57;;;;;;;11.57;7.18;;;14.90;99.90;;;;;;2072316;28;20028;-69
2022/05/08 01:03:58;;;;;;;10.10;6.78;;;14.90;99.90;;;;;;2074271;28;20022;-69
2022/05/08 01:04:58;;;;;;;8.52;7.45;;;14.80;99.90;;;;;;2068980;28;20101;-70
2022/05/08 01:06:04;;;;;;;11.07;7.40;;;14.90;99.90;;;;;;2068053;28;20505;-69
2022/05/08 01:07:04;;;;;;;9.98;6.93;;;14.90;99.90;;;;;;2069807;28;20022;-69
2022/05/08 01:08:05;;;;;;;9.52;6.75;;;14.80;99.90;;;;;;2068829;28;20892;-69
2022/05/08 01:09:06;;;;;;;11.10;7.25;;;14.80;99.90;;;;;;2072060;28;20026;-69
2022/05/08 01:10:07;;;;;;;9.48;7.00;;;14.80;99.90;;;;;;2073308;28;20120;-70
2022/05/08 01:11:09;;;;;;;8.52;6.60;;;14.80;99.90;;;;;;2069051;28;20033;-69
2022/05/08 01:12:10;;;;;;;11.35;7.20;;;14.80;99.90;;;;;;2068663;28;20050;-69
2022/05/08 01:13:10;;;;;;;9.60;6.53;;;14.80;99.90;;;;;;2069525;28;20667;-69
2022/05/08 01:14:13;;;;;;;9.32;7.28;;;14.80;99.90;;;;;;2072321;28;20033;-69
2022/05/08 01:15:18;;;;;;;10.43;7.35;;;14.80;99.90;;;;;;2070234;28;20030;-70
2022/05/08 01:16:20;;;;;;;9.23;7.22;;;14.70;99.90;;;;;;2075021;28;20382;-70
2022/05/08 01:17:21;;;;;;;10.90;6.78;;;14.70;99.90;;;;;;2069197;28;20022;-69
2022/05/08 01:18:22;;;;;;;8.85;6.22;;;14.70;99.90;;;;;;2071252;28;20030;-69
2022/05/08 01:19:22;;;;;;;10.93;7.15;;;14.70;99.90;;;;;;2071246;28;20687;-69
2022/05/08 01:20:23;;;;;;;9.73;6.75;;;14.70;99.90;;;;;;2072943;28;20022;-69
2022/05/08 01:21:41;;;;;;;12.52;6.80;;;14.60;99.90;;;;;;2072756;28;20053;-70
2022/05/08 01:22:41;;;;;;;10.35;7.25;;;14.60;99.90;;;;;;2077780;28;20120;-69
2022/05/08 01:23:44;;;;;;;10.57;7.43;;;14.60;99.90;;;;;;2078656;28;20033;-69
2022/05/08 01:24:45;;;;;;;11.60;7.45;;;14.60;99.90;;;;;;2069877;28;20037;-69
2022/05/08 01:25:54;;;;;;;9.40;6.85;;;14.60;99.90;;;;;;2069899;28;20122;-69
2022/05/08 01:26:54;;;;;;;11.73;7.32;;;14.60;99.90;;;;;;2073130;28;20029;-69
2022/05/08 01:27:55;;;;;;;10.25;7.05;;;14.60;99.90;;;;;;2069624;28;20014;-70
2022/05/08 01:28:55;;;;;;;10.93;7.43;;;14.60;99.90;;;;;;2070725;28;20026;-70
2022/05/08 01:29:57;;;;;;;12.02;7.65;;;14.50;99.90;;;;;;2074034;28;20033;-70
2022/05/08 01:30:57;;;;;;;12.15;7.82;;;14.60;99.90;;;;;;2068496;28;20026;-69
2022/05/08 01:31:58;;;;;;;9.77;7.50;;;14.50;99.90;;;;;;2069241;28;20052;-69
2022/05/08 01:33:00;;;;;;;8.90;7.32;;;14.50;99.90;;;;;;2068153;28;20103;-69
2022/05/08 01:34:00;;;;;;;10.32;7.70;;;14.50;99.90;;;;;;2070014;28;20025;-69
2022/05/08 01:35:01;;;;;;;10.30;8.43;;;14.50;99.90;;;;;;2064117;28;20022;-69
2022/05/08 01:36:02;;;;;;;12.65;8.38;;;14.50;99.90;;;;;;2068066;28;20409;-69
2022/05/08 01:37:03;;;;;;;9.32;8.00;;;14.40;99.90;;;;;;2069918;28;20037;-69
2022/05/08 01:38:05;;;;;;;12.65;8.63;;;14.40;99.90;;;;;;2069944;28;20026;-69
2022/05/08 01:39:05;;;;;;;11.68;8.15;;;14.40;99.90;;;;;;2070508;28;20054;-70
2022/05/08 01:40:07;;;;;;;14.02;8.63;;;14.40;99.90;;;;;;2071238;28;20036;-69
2022/05/08 01:41:08;;;;;;;12.75;9.30;;;14.40;99.90;;;;;;2070369;28;20048;-70
2022/05/08 01:42:09;;;;;;;12.40;8.05;;;14.40;99.90;;;;;;2070870;28;20575;-70
2022/05/08 01:43:10;;;;;;;13.02;8.65;;;14.40;99.90;;;;;;2069635;28;20030;-70
2022/05/08 01:44:11;;;;;;;12.20;8.13;;;14.40;99.90;;;;;;2069577;28;20034;-69
2022/05/08 01:45:12;;;;;;;11.50;9.13;;;14.40;99.90;;;;;;2070154;28;20054;-69
2022/05/08 01:46:13;;;;;;;11.93;9.07;;;14.40;99.90;;;;;;2071542;28;20874;-69
2022/05/08 01:48:33;;;;;;;13.55;9.23;;;14.40;99.90;;;;;;2074147;28;20029;-69
2022/05/08 01:49:34;;;;;;;12.13;9.05;;;14.40;99.90;;;;;;2070912;28;20028;-69
2022/05/08 01:50:35;;;;;;;15.55;9.23;;;14.40;99.90;;;;;;2070555;28;20029;-70
2022/05/08 01:51:36;;;;;;;10.13;8.57;;;14.40;99.90;;;;;;2073827;28;20056;-69
2022/05/08 01:52:36;;;;;;;12.60;9.02;;;14.30;99.90;;;;;;2070737;28;20026;-70
2022/05/08 01:53:37;;;;;;;10.23;8.85;;;14.30;99.90;;;;;;2070741;28;20112;-70
2022/05/08 01:54:37;;;;;;;16.90;10.25;;;14.30;99.90;;;;;;2067736;28;20030;-69
2022/05/08 01:55:38;;;;;;;15.05;9.65;;;14.30;99.90;;;;;;2068814;28;20026;-69
2022/05/08 01:56:38;;;;;;;10.95;9.07;;;14.30;99.90;;;;;;2072799;28;20033;-70
2022/05/08 01:57:39;;;;;;;16.10;10.48;;;14.30;99.90;;;;;;2071072;28;20595;-69
2022/05/08 01:58:39;;;;;;;11.25;10.07;;;14.20;99.90;;;;;;2071332;28;20112;-69
2022/05/08 01:59:40;;;;;;;12.90;10.18;;;14.20;99.90;;;;;;2069791;28;20427;-70
2022/05/08 02:00:40;;;;;;;13.88;9.88;;;14.20;99.90;;;;;;2067681;28;20426;-70
2022/05/08 02:01:41;;;;;;;13.27;10.88;;;14.20;99.90;;;;;;2070126;28;20444;-69
2022/05/08 02:02:43;;;;;;;11.75;9.73;;;14.20;99.90;;;;;;2070860;28;20065;-69
2022/05/08 02:03:44;;;;;;;14.85;11.07;;;14.20;99.90;;;;;;2070127;28;20010;-70
2022/05/08 02:04:45;;;;;;;11.25;10.05;;;14.20;99.90;;;;;;2070240;28;20608;-70
2022/05/08 02:05:46;;;;;;;11.07;8.77;;;14.20;99.90;;;;;;2070153;28;20048;-70
2022/05/08 02:06:49;;;;;;;15.63;10.52;;;14.10;99.90;;;;;;2070124;28;20025;-70
2022/05/08 02:07:50;;;;;;;13.25;11.02;;;14.20;99.90;;;;;;2071388;28;20022;-70
2022/05/08 02:08:52;;;;;;;13.32;11.13;;;14.20;99.90;;;;;;2068569;28;20022;-70
2022/05/08 02:09:52;;;;;;;12.90;11.40;;;14.20;99.90;;;;;;2072706;28;20095;-70
2022/05/08 02:10:53;;;;;;;15.73;12.23;;;14.10;99.90;;;;;;2069567;28;20107;-69
2022/05/08 02:11:54;;;;;;;14.85;10.77;;;14.10;99.90;;;;;;2070946;28;20416;-69
2022/05/08 02:12:55;;;;;;;16.38;11.95;;;14.10;99.90;;;;;;2069840;28;20038;-70
2022/05/08 02:13:55;;;;;;;18.17;12.07;;;14.10;99.90;;;;;;2071742;28;20537;-69
2022/05/08 02:14:56;;;;;;;14.07;12.57;;;14.10;99.90;;;;;;2072680;28;20113;-69
2022/05/08 02:15:58;;;;;;;13.30;11.45;;;14.10;99.90;;;;;;2070631;28;20033;-70
2022/05/08 02:16:58;;;;;;;18.00;12.10;;;14.10;99.90;;;;;;2072000;28;20021;-69
2022/05/08 02:18:04;;;;;;;18.15;12.10;;;14.10;99.90;;;;;;2067649;28;20072;-69
2022/05/08 02:19:04;;;;;;;14.45;12.48;;;14.00;99.90;;;;;;2073592;28;20030;-69
2022/05/08 02:20:07;;;;;;;17.15;12.40;;;14.00;99.90;;;;;;2073425;28;20742;-69
2022/05/08 02:21:07;;;;;;;13.20;11.77;;;13.90;99.90;;;;;;2071884;28;20054;-69
2022/05/08 02:22:08;;;;;;;14.65;12.05;;;13.90;99.90;;;;;;2072008;28;20014;-69
2022/05/08 02:23:09;;;;;;;15.30;12.23;;;13.90;99.90;;;;;;2068493;28;20136;-69
2022/05/08 02:24:09;;;;;;;14.68;11.65;;;13.80;99.90;;;;;;2067589;28;20022;-69
2022/05/08 02:25:10;;;;;;;14.57;12.40;;;13.80;99.90;;;;;;2066067;28;20034;-70
2022/05/08 02:26:10;;;;;;;15.07;12.00;;;13.80;99.90;;;;;;2069464;28;20026;-69
2022/05/08 02:27:11;;;;;;;18.00;13.35;;;13.80;99.90;;;;;;2070229;28;20046;-70
2022/05/08 02:28:11;;;;;;;14.85;12.80;;;13.80;99.90;;;;;;2069750;28;20043;-69
2022/05/08 02:29:12;;;;;;;18.80;13.35;;;13.70;99.90;;;;;;2071274;28;20055;-69
2022/05/08 02:30:12;;;;;;;16.50;12.85;;;13.70;99.90;;;;;;2069774;28;20029;-69
2022/05/08 02:31:13;;;;;;;18.10;13.27;;;13.60;99.90;;;;;;2072143;28;20104;-69
2022/05/08 02:32:14;;;;;;;16.90;13.60;;;13.60;99.90;;;;;;2070714;28;20135;-69
2022/05/08 02:33:15;;;;;;;16.65;13.13;;;13.60;99.90;;;;;;2071715;28;20036;-69
2022/05/08 02:34:15;;;;;;;19.80;13.73;;;13.60;99.90;;;;;;2067781;28;20049;-70
2022/05/08 02:35:17;;;;;;;14.68;12.85;;;13.60;99.90;;;;;;2069737;28;20038;-70
2022/05/08 02:36:19;;;;;;;14.32;12.45;;;13.50;99.90;;;;;;2069741;28;20493;-70
2022/05/08 02:37:19;;;;;;;16.80;13.50;;;13.50;99.90;;;;;;2071073;28;20033;-70
2022/05/08 02:38:20;;;;;;;20.02;14.13;;;13.50;99.90;;;;;;2070631;28;20026;-69
2022/05/08 02:39:20;;;;;;;15.13;12.75;;;13.50;99.90;;;;;;2069457;28;20569;-70
2022/05/08 02:40:25;;;;;;;16.85;12.98;;;13.50;99.90;;;;;;2070932;28;20914;-70
2022/05/08 02:41:25;;;;;;;18.70;13.45;;;13.60;99.90;;;;;;2068632;28;20386;-70
2022/05/08 02:42:27;;;;;;;16.27;13.52;;;13.50;99.90;;;;;;2070647;28;20018;-70
2022/05/08 02:43:27;;;;;;;17.15;12.95;;;13.50;99.90;;;;;;2071722;28;20424;-70
2022/05/08 02:44:28;;;;;;;15.35;12.57;;;13.50;99.90;;;;;;2070169;28;20029;-70
2022/05/08 02:45:28;;;;;;;16.00;11.63;;;13.50;99.90;;;;;;2069865;28;20056;-69
2022/05/08 02:46:29;;;;;;;14.80;12.80;;;13.50;99.90;;;;;;2070959;28;20037;-70
2022/05/08 02:47:31;;;;;;;18.15;13.63;;;13.50;99.90;;;;;;2074144;28;20120;-69
2022/05/08 02:48:31;;;;;;;17.80;13.25;;;13.50;99.90;;;;;;2070395;28;20100;-69
2022/05/08 02:49:33;;;;;;;16.15;13.40;;;13.50;99.90;;;;;;2067529;28;20026;-69
2022/05/08 02:50:33;;;;;;;18.20;13.32;;;13.50;99.90;;;;;;2066760;28;20050;-69
2022/05/08 02:51:34;;;;;;;19.63;14.25;;;13.50;99.90;;;;;;2070057;28;20030;-69
2022/05/08 02:52:35;;;;;;;15.32;12.45;;;13.50;99.90;;;;;;2068662;28;20061;-70
2022/05/08 02:53:35;;;;;;;15.50;13.75;;;13.60;99.90;;;;;;2069760;28;20108;-69
2022/05/08 02:54:36;;;;;;;14.60;12.18;;;13.60;99.90;;;;;;2070057;28;20076;-69
2022/05/08 02:58:32;;;;;;;18.08;15.13;;;13.40;99.90;;;;;;2068605;28;20401;-69
2022/05/08 02:59:33;;;;;;;16.70;11.75;;;13.40;99.90;;;;;;2067332;28;20030;-69
2022/05/08 03:00:33;;;;;;;19.35;14.77;;;13.30;99.90;;;;;;2070356;28;20108;-69
2022/05/08 03:01:34;;;;;;;17.83;14.30;;;13.30;99.90;;;;;;2070046;28;20425;-69
2022/05/08 03:02:35;;;;;;;22.05;15.57;;;13.30;99.90;;;;;;2067791;28;20050;-69
2022/05/08 03:03:36;;;;;;;16.83;13.60;;;13.30;99.90;;;;;;2069113;28;20129;-70
2022/05/08 03:04:37;;;;;;;16.88;12.80;;;13.30;99.90;;;;;;2070689;28;20125;-70
2022/05/08 03:05:40;;;;;;;24.25;14.70;;;13.30;99.90;;;;;;2070228;28;20018;-69
2022/05/08 03:06:40;;;;;;;17.33;14.48;;;13.30;99.90;;;;;;2069852;28;20018;-70
2022/05/08 03:07:41;;;;;;;18.48;13.63;;;13.30;99.90;;;;;;2070786;28;20068;-69
2022/05/08 03:08:43;;;;;;;19.73;13.68;;;13.30;99.90;;;;;;2071660;28;20053;-69
2022/05/08 03:09:43;;;;;;;19.75;14.68;;;13.30;99.90;;;;;;2071814;28;20030;-69
2022/05/08 03:12:04;;;;;;;23.92;14.18;;;13.30;99.90;;;;;;2071728;28;20018;-70
2022/05/08 03:13:05;;;;;;;16.92;14.32;;;13.30;99.90;;;;;;2069950;28;20026;-70
2022/05/08 03:14:05;;;;;;;19.83;14.75;;;13.30;99.90;;;;;;2070880;28;20100;-69
2022/05/08 03:15:06;;;;;;;24.30;15.95;;;13.30;99.90;;;;;;2071459;28;20056;-70
2022/05/08 03:16:10;;;;;;;17.83;14.48;;;13.20;99.90;;;;;;2070422;28;20036;-70
2022/05/08 03:17:11;;;;;;;23.42;14.88;;;13.20;99.90;;;;;;2071185;28;20022;-70
2022/05/08 03:18:11;;;;;;;20.25;14.88;;;13.20;99.90;;;;;;2072627;28;20045;-70
2022/05/08 03:19:13;;;;;;;20.00;15.73;;;13.20;99.90;;;;;;2070201;28;20025;-69
2022/05/08 03:20:13;;;;;;;20.83;15.50;;;13.20;99.90;;;;;;2072808;28;20022;-70
2022/05/08 03:21:15;;;;;;;20.15;14.98;;;13.20;99.90;;;;;;2068854;28;20030;-69
2022/05/08 03:22:15;;;;;;;22.73;15.88;;;13.10;99.90;;;;;;2070824;28;20026;-70
2022/05/08 03:23:16;;;;;;;21.65;15.00;;;13.10;99.90;;;;;;2070851;28;20029;-70
2022/05/08 03:24:17;;;;;;;20.83;16.40;;;13.10;99.90;;;;;;2073024;28;20087;-70
2022/05/08 03:25:18;;;;;;;20.33;15.25;;;13.10;99.90;;;;;;2070047;28;20068;-69
2022/05/08 03:26:22;;;;;;;25.50;15.75;;;13.10;99.90;;;;;;2075132;28;20037;-69
2022/05/08 03:27:23;;;;;;;25.63;15.88;;;13.10;99.90;;;;;;2074226;28;20026;-69
2022/05/08 03:28:23;;;;;;;20.55;15.52;;;13.10;99.90;;;;;;2075398;28;20496;-70
2022/05/08 03:29:27;;;;;;;20.15;14.98;;;13.10;99.90;;;;;;2068997;28;20029;-69
2022/05/08 03:30:28;;;;;;;21.92;15.80;;;13.00;99.90;;;;;;2071213;28;20509;-70
2022/05/08 03:31:28;;;;;;;21.33;16.17;;;13.10;99.90;;;;;;2071255;28;20018;-69
2022/05/08 03:32:29;;;;;;;24.95;16.25;;;13.00;99.90;;;;;;2070843;28;20030;-70
2022/05/08 03:33:32;;;;;;;24.98;16.20;;;13.10;99.90;;;;;;2071032;28;20509;-70
2022/05/08 03:34:32;;;;;;;21.73;16.48;;;13.00;99.90;;;;;;2070644;28;20501;-69
2022/05/08 03:35:33;;;;;;;18.50;14.98;;;13.00;99.90;;;;;;2069235;28;20830;-69
2022/05/08 03:36:33;;;;;;;24.33;15.77;;;13.00;99.90;;;;;;2068016;28;20094;-70
2022/05/08 03:37:34;;;;;;;21.55;16.42;;;12.90;99.90;;;;;;2069960;28;20390;-70
2022/05/08 03:38:35;;;;;;;22.15;16.20;;;12.90;99.90;;;;;;2068531;28;20486;-70
2022/05/08 03:39:35;;;;;;;21.55;15.55;;;12.90;99.90;;;;;;2070341;28;20505;-70
2022/05/08 03:40:37;;;;;;;23.02;16.60;;;12.90;99.90;;;;;;2071705;28;20092;-70
2022/05/08 03:41:38;;;;;;;19.45;15.90;;;12.90;99.90;;;;;;2073095;28;20025;-70
2022/05/08 03:42:38;;;;;;;26.55;16.92;;;12.90;99.90;;;;;;2069316;28;20744;-70
2022/05/08 03:43:39;;;;;;;20.17;16.20;;;12.90;99.90;;;;;;2068958;28;20401;-69
2022/05/08 03:44:40;;;;;;;25.80;17.30;;;12.90;99.90;;;;;;2073505;28;20397;-70
2022/05/08 03:45:40;;;;;;;21.52;16.17;;;12.90;99.90;;;;;;2071377;28;20101;-70
2022/05/08 03:46:41;;;;;;;22.88;16.77;;;12.90;99.90;;;;;;2070260;28;20605;-70
2022/05/08 03:47:42;;;;;;;23.40;17.20;;;12.90;99.90;;;;;;2072996;28;20018;-70
2022/05/08 03:48:43;;;;;;;22.27;16.20;;;12.90;99.90;;;;;;2072457;28;20026;-70
2022/05/08 03:49:43;;;;;;;24.80;16.20;;;12.90;99.90;;;;;;2069110;28;20026;-69
2022/05/08 03:50:44;;;;;;;19.77;14.73;;;12.90;99.90;;;;;;2071728;28;20057;-69
2022/05/08 03:51:45;;;;;;;24.95;16.67;;;12.90;99.90;;;;;;2070355;28;20018;-69
2022/05/08 03:52:46;;;;;;;21.55;15.77;;;12.80;99.90;;;;;;2071617;28;20022;-70
2022/05/08 03:53:46;;;;;;;23.52;15.63;;;12.80;99.90;;;;;;2070278;28;20029;-69
2022/05/08 03:54:47;;;;;;;22.20;14.45;;;12.80;99.90;;;;;;2072382;28;20029;-70
2022/05/08 03:55:47;;;;;;;17.08;12.00;;;12.80;99.90;;;;;;2071276;28;20026;-69
2022/05/08 03:56:48;;;;;;;18.20;11.32;;;12.70;99.90;;;;;;2071962;28;20038;-69
2022/05/08 03:57:49;;;;;;;20.63;12.05;;;12.70;99.90;;;;;;2074359;28;20569;-70
2022/05/08 03:58:50;;;;;;;20.40;11.27;;;12.70;99.90;;;;;;2072902;28;20030;-70
2022/05/08 03:59:50;;;;;;;19.25;11.32;;;12.70;99.90;;;;;;2070558;28;20029;-70
2022/05/08 04:00:51;;;;;;;24.33;10.07;;;12.70;99.90;;;;;;2069114;28;20028;-70
2022/05/08 04:01:54;;;;;;;18.83;9.75;;;12.70;99.90;;;;;;2071728;28;20050;-69
2022/05/08 04:02:55;;;;;;;20.42;9.52;;;12.60;99.90;;;;;;2072284;28;20010;-70
2022/05/08 04:03:56;;;;;;;23.52;9.52;;;12.60;99.90;;;;;;2069313;28;20018;-70
2022/05/08 04:04:56;;;;;;;26.95;9.55;;;12.60;99.90;;;;;;2069379;28;20034;-70
2022/05/08 04:05:57;;;;;;;17.17;7.95;;;12.60;99.90;;;;;;2071653;28;20128;-70
2022/05/08 04:06:57;;;;;;;21.75;7.57;;;12.60;99.90;;;;;;2070154;28;20528;-70
2022/05/08 04:07:58;;;;;;;19.63;7.60;;;12.60;99.90;;;;;;2069886;28;20509;-69
2022/05/08 04:08:59;;;;;;;19.95;7.25;;;12.60;99.90;;;;;;2071578;28;20105;-69
2022/05/08 04:10:00;;;;;;;24.40;8.52;;;12.50;99.90;;;;;;2071952;28;20047;-69
2022/05/08 04:11:02;;;;;;;24.17;8.25;;;12.50;99.90;;;;;;2070798;28;20076;-70
2022/05/08 04:12:02;;;;;;;21.33;7.50;;;12.50;99.90;;;;;;2073331;28;20022;-69
2022/05/08 04:13:03;;;;;;;25.63;7.75;;;12.50;99.90;;;;;;2071056;28;20441;-69
2022/05/08 04:14:03;;;;;;;21.40;7.57;;;12.40;99.90;;;;;;2070594;28;20075;-69
2022/05/08 04:16:15;;;;;;;26.70;7.43;;;12.40;99.90;;;;;;2073674;28;20037;-70
2022/05/08 04:16:30;;;;;;;19.33;6.78;;;12.40;99.90;;;;;;2071843;28;20022;-69
2022/05/08 04:17:32;;;;;;;22.17;7.45;;;12.30;99.90;;;;;;2072136;28;20025;-69
2022/05/08 04:18:33;;;;;;;18.48;6.93;;;12.30;99.90;;;;;;2067706;28;20481;-70
2022/05/08 04:19:33;;;;;;;23.83;7.40;;;12.30;99.90;;;;;;2071796;28;20476;-70
2022/05/08 04:20:34;;;;;;;23.48;6.63;;;12.20;99.90;;;;;;2072091;28;20022;-70
2022/05/08 04:21:34;;;;;;;21.77;7.07;;;12.20;99.90;;;;;;2073798;28;20652;-70
2022/05/08 04:25:13;;;;;;;23.80;7.60;;;12.20;99.90;;;;;;2071227;28;20497;-70
2022/05/08 04:26:13;;;;;;;19.13;7.07;;;12.20;99.90;;;;;;2071845;28;20029;-69
2022/05/08 04:27:14;;;;;;;20.15;7.30;;;12.20;99.90;;;;;;2074499;28;20076;-70
2022/05/08 04:28:16;;;;;;;19.58;7.43;;;12.20;99.90;;;;;;2071959;28;20034;-70
2022/05/08 04:29:16;;;;;;;20.80;7.00;;;12.20;99.90;;;;;;2071748;28;20014;-70
2022/05/08 04:30:17;;;;;;;21.92;7.25;;;12.20;99.90;;;;;;2070666;28;20079;-70
2022/05/08 04:31:17;;;;;;;17.65;6.90;;;12.20;99.90;;;;;;2071227;28;20045;-70
2022/05/08 04:32:18;;;;;;;22.95;6.78;;;12.20;99.90;;;;;;2073547;28;20068;-69
2022/05/08 04:33:18;;;;;;;24.83;6.85;;;12.20;99.90;;;;;;2073621;28;20111;-70
2022/05/08 04:34:19;;;;;;;24.73;6.88;;;12.20;99.90;;;;;;2067212;28;20557;-70
2022/05/08 04:35:19;;;;;;;24.65;7.15;;;12.20;99.90;;;;;;2068850;28;20516;-70
2022/05/08 04:36:20;;;;;;;21.20;7.38;;;12.20;99.90;;;;;;2071877;28;20478;-70
2022/05/08 04:37:21;;;;;;;17.55;7.00;;;12.20;99.90;;;;;;2068414;28;20622;-70
2022/05/08 04:38:21;;;;;;;24.50;7.00;;;12.10;99.90;;;;;;2071413;28;20118;-70
2022/05/08 04:39:22;;;;;;;23.23;6.68;;;12.20;99.90;;;;;;2075239;28;20029;-70
2022/05/08 04:40:24;;;;;;;20.17;7.00;;;12.10;99.90;;;;;;2072137;28;20025;-70
2022/05/08 04:41:24;;;;;;;22.23;6.90;;;12.10;99.90;;;;;;2071598;28;20436;-70
2022/05/08 04:42:26;;;;;;;20.63;6.57;;;12.10;99.90;;;;;;2071472;28;20029;-69
2022/05/08 04:43:26;;;;;;;23.75;7.60;;;12.10;99.90;;;;;;2072104;28;20025;-69
2022/05/08 04:44:26;;;;;;;20.60;6.70;;;12.10;99.90;;;;;;2073209;28;20281;-70
2022/05/08 04:45:27;;;;;;;24.70;7.10;;;12.10;99.90;;;;;;2069481;28;20025;-70
2022/05/08 04:46:28;;;;;;;21.55;7.10;;;12.10;99.90;;;;;;2069134;28;20025;-70
2022/05/08 04:47:29;;;;;;;22.85;6.88;;;12.10;99.90;;;;;;2070967;28;20049;-70
2022/05/08 04:48:29;;;;;;;16.38;7.15;;;12.10;99.90;;;;;;2072931;28;20029;-70
2022/05/08 04:49:30;;;;;;;26.88;7.25;;;12.10;99.90;;;;;;2070446;28;20018;-70
2022/05/08 04:50:31;;;;;;;18.17;6.85;;;12.10;99.90;;;;;;2071809;28;20061;-70
2022/05/08 04:51:31;;;;;;;22.67;7.18;;;12.10;99.90;;;;;;2070813;28;20022;-70
2022/05/08 04:52:32;;;;;;;20.35;7.28;;;12.10;99.90;;;;;;2071651;28;20030;-70
2022/05/08 04:53:32;;;;;;;18.67;6.30;;;12.10;99.90;;;;;;2069574;28;20022;-70
2022/05/08 04:54:33;;;;;;;23.17;7.75;;;12.20;99.90;;;;;;2073450;28;20359;-70
2022/05/08 04:55:33;;;;;;;24.20;6.82;;;12.20;99.90;;;;;;2071572;28;20030;-70
2022/05/08 04:56:34;;;;;;;21.77;7.03;;;12.20;99.90;;;;;;2070568;28;20486;-70
2022/05/08 04:57:35;;;;;;;19.95;7.60;;;12.10;99.90;;;;;;2072547;28;20028;-69
2022/05/08 04:58:36;;;;;;;26.85;7.25;;;12.10;99.90;;;;;;2069541;28;20554;-70
2022/05/08 04:59:37;;;;;;;23.20;6.47;;;12.10;99.90;;;;;;2068632;28;20025;-70
2022/05/08 05:00:37;;;;;;;23.02;6.32;;;12.20;99.90;;;;;;2073726;28;20026;-70
2022/05/08 05:01:38;;;;;;;18.30;6.45;;;12.20;99.90;;;;;;2073584;28;20382;-70
2022/05/08 05:02:38;;;;;;;26.88;6.90;;;12.20;99.90;;;;;;2071951;28;20149;-70
2022/05/08 05:03:41;;;;;;;16.13;6.15;;;12.10;99.90;;;;;;2072699;28;20100;-70
2022/05/08 05:04:41;;;;;;;17.13;6.63;;;12.20;99.90;;;;;;2073900;28;20061;-70
2022/05/08 05:05:42;;;;;;;21.05;7.32;;;12.20;99.90;;;;;;2071778;28;20022;-69
2022/05/08 05:06:44;;;;;;;22.73;6.55;;;12.20;99.90;;;;;;2071841;28;20113;-70
2022/05/08 05:07:44;;;;;;;19.75;6.63;;;12.30;99.90;;;;;;2068746;28;20022;-70
2022/05/08 05:08:45;;;;;;;23.77;7.35;;;12.30;99.90;;;;;;2070531;28;20030;-70
2022/05/08 05:09:45;;;;;;;20.48;5.90;;;12.30;99.90;;;;;;2071313;28;20022;-70
2022/05/08 05:10:46;;;;;;;21.73;7.53;;;12.30;99.90;;;;;;2073067;28;20025;-70
2022/05/08 05:11:47;;;;;;;23.17;7.13;;;12.30;99.90;;;;;;2071923;28;20018;-70
2022/05/08 05:12:48;;;;;;;20.52;6.78;;;12.30;99.90;;;;;;2069610;28;20025;-70
2022/05/08 05:13:48;;;;;;;18.08;7.60;;;12.30;99.90;;;;;;2073809;28;20382;-70
2022/05/08 05:14:49;;;;;;;21.50;7.97;;;12.30;99.90;;;;;;2073529;28;20091;-70
2022/05/08 05:15:49;;;;;;;23.98;9.05;;;12.30;99.90;;;;;;2073639;28;20030;-70
2022/05/08 05:16:50;;;;;;;24.38;8.02;;;12.30;99.90;;;;;;2070958;28;20422;-70
2022/05/08 05:17:52;;;;;;;19.35;8.13;;;12.40;99.90;;;;;;2070767;28;20097;-69
2022/05/08 05:18:52;;;;;;;24.95;8.70;;;12.30;99.90;;;;;;2072335;28;20428;-70
2022/05/08 05:19:53;;;;;;;25.27;7.97;;;12.30;99.90;;;;;;2068357;28;20026;-70
2022/05/08 05:20:53;;;;;;;24.10;7.15;;;12.30;99.90;;;;;;2069106;28;20025;-70
2022/05/08 05:21:54;;;;;;;23.88;8.27;;;12.30;99.90;;;;;;2072699;28;20065;-70